• Join FlightAware (Why Join?)
  • Login
  • US Flag 
07:46PM EDT


 

Airport Tracker/Info


-or-


 

Live Flight TrackerFlight Track Log ✈ FFT920 ✈ 30-Apr-2013 ✈ KRDU - KTTN

Flight Track Log - Related Links

Times and Time Zones

All times are in EDT time to prevent confusion due to time zone crossing. See the FFT920 flight status page for this flight to view local times or setup timezone preferences in your user account.

Time Position Orientation Groundspeed Altitude Reporting Facility
EDT Latitude Longitude Course Direction KTS MPH feet Rate Location/Type
09:13AM 35.8947 -78.7764 21° North 153 176 1,500  Level Washington Center
09:15AM 35.9389 -78.7553 21° North 186 214 3,400 1,980 Climbing Washington Center
09:15AM 35.9981 -78.7294 19° North 270 311 5,600 3,180 Climbing Washington Center
09:17AM 36.0822 -78.7019 15° North 280 322 9,700 3,000 Climbing Washington Center
09:18AM 36.1622 -78.6767 14° North 280 322 11,800 2,100 Climbing Washington Center
09:19AM 36.2464 -78.6464 16° North 322 371 14,000 2,580 Climbing Washington Center
09:20AM 36.3517 -78.6144 14° North 346 398 17,100 2,820 Climbing Washington Center
09:21AM 36.4547 -78.5797 15° North 359 413 19,700 2,520 Climbing Washington Center
09:22AM 36.5558 -78.5450 15° North 370 426 22,100 2,220 Climbing Washington Center
09:23AM 36.6611 -78.5047 17° North 376 433 24,200 2,040 Climbing Washington Center
09:24AM 36.7664 -78.4594 19° North 388 447 26,300 1,380 Climbing Washington Center
09:25AM 36.8600 -78.3825 33° Northeast 388 447 27,000 420 Climbing Washington Center
09:26AM 36.9536 -78.3028 34° Northeast 400 460 27,200 1,140 Climbing Washington Center
09:27AM 37.0514 -78.2256 32° Northeast 405 466 29,400 1,920 Climbing Washington Center
09:28AM 37.1342 -78.1581 33° Northeast 405 466 31,000 780 Climbing Washington Center
09:29AM 37.2319 -78.0778 33° Northeast 394 453 31,000  Level Washington Center
09:30AM 37.3231 -78.0025 33° Northeast 394 453 31,000  Level Washington Center
09:31AM 37.4164 -77.9242 34° Northeast 394 453 31,000  Level Washington Center
09:32AM 37.5075 -77.8486 33° Northeast 394 453 31,000  Level Washington Center
09:33AM 37.5967 -77.7647 37° Northeast 394 453 31,000  Level Washington Center
09:34AM 37.6900 -77.6833 35° Northeast 394 453 31,000  Level Washington Center
09:35AM 37.7789 -77.5992 37° Northeast 394 453 31,000  Level Washington Center
09:36AM 37.8700 -77.5200 34° Northeast 394 453 31,000  Level Washington Center
09:37AM 37.9589 -77.4353 37° Northeast 394 453 31,000  Level Washington Center
09:38AM 38.0497 -77.3558 35° Northeast 394 453 31,000  Level Washington Center
09:39AM 38.1406 -77.2736 35° Northeast 394 453 31,000  Level Washington Center
09:40AM 38.2294 -77.1883 37° Northeast 394 453 31,000 -180 Level Washington Center
09:41AM 38.3200 -77.1056 36° Northeast 394 453 30,700 -660 Descending Washington Center
09:42AM 38.4086 -77.0225 36° Northeast 388 447 29,700 -960 Descending Washington Center
09:43AM 38.4992 -76.9394 36° Northeast 393 452 28,800 -1,380 Descending Washington Center
09:44AM 38.5919 -76.8533 36° Northeast 393 452 27,000 -2,160 Descending Washington Center
09:45AM 38.6825 -76.7644 37° Northeast 393 452 24,600 -1,500 Descending Washington Center
09:46AM 38.7253 -76.6375 67° East 377 434 24,000 -780 Descending Washington Center
09:47AM 38.7556 -76.4967 75° East 377 434 23,100 -1,980 Descending Washington Center
09:48AM 38.7817 -76.3611 76° East 387 445 20,100 -2,700 Descending Washington Center
09:49AM 38.8094 -76.2256 75° East 392 451 17,800 -2,160 Descending Washington Center
09:50AM 38.8436 -76.0900 72° East 392 451 15,900 -1,440 Descending Washington Center
09:51AM 38.8711 -75.9542 75° East 392 451 14,900 -900 Descending Washington Center
09:52AM 38.9047 -75.8264 71° East 392 451 14,100 -840 Descending Washington Center
09:54AM 38.9813 -75.7514 37° Northeast  Level FlightAware Approximate
09:54AM 39.1333 -75.6667 37° Northeast 372 428 12,100  Level Philadelphia TRACON
09:55AM 39.2333 -75.6667 360° North 329 379 12,000 -60 Descending Philadelphia TRACON
09:56AM 39.3167 -75.6167 25° Northeast 294 338 12,000  Level Philadelphia TRACON
09:57AM 39.3833 -75.5667 30° Northeast 296 341 12,000  Level Philadelphia TRACON
09:58AM 39.4667 -75.5333 17° North 296 341 12,000  Level Philadelphia TRACON
09:59AM 39.5500 -75.5167 North 298 343 12,000  Level Philadelphia TRACON
10:00AM 39.6167 -75.4833 21° North 295 339 12,000 -60 Level Philadelphia TRACON
10:01AM 39.6833 -75.4167 38° Northeast 295 339 11,900 -480 Descending Philadelphia TRACON
10:02AM 39.7167 -75.3167 67° East 290 334 11,000 -480 Descending Philadelphia TRACON
10:03AM 39.7500 -75.2333 62° Northeast 290 334 11,000 -360 Level Philadelphia TRACON
10:04AM 39.7833 -75.1333 67° East 284 327 10,300 -540 Descending Philadelphia TRACON
10:05AM 39.8167 -75.0500 62° Northeast 285 328 10,000 -540 Descending Philadelphia TRACON
10:06AM 39.8333 -74.9500 78° East 284 327 9,300 -1,680 Descending Philadelphia TRACON
10:07AM 39.8833 -74.8833 46° Northeast 276 318 6,800 -2,460 Descending Philadelphia TRACON
10:08AM 39.9500 -74.8667 11° North 272 313 4,400 -1,500 Descending Philadelphia TRACON
10:09AM 40.0167 -74.8667 360° North 232 267 3,900 -660 Descending Philadelphia TRACON
10:10AM 40.0833 -74.9000 339° North 225 259 3,100 -540 Descending Philadelphia TRACON
10:11AM 40.1500 -74.9000 360° North 211 243 2,800 -600 Descending Philadelphia TRACON
10:12AM 40.2000 -74.9167 346° North 182 209 1,900 -780 Descending Philadelphia TRACON
10:13AM 40.2333 -74.8833 37° Northeast 177 204 1,400 -600 Descending Philadelphia TRACON
10:14AM 40.2500 -74.8500 57° Northeast 118 136 700 -660 Descending Philadelphia TRACON
10:16AM 40.2667 -74.8000 17° North  Level FlightAware Approximate